createdAt,value
2023-02-22T00:00:27.847Z,97.79
2023-02-22T00:01:27.834Z,97.58
2023-02-22T00:02:27.825Z,97.27
2023-02-22T00:03:27.910Z,97.69
2023-02-22T00:04:27.807Z,97.79
2023-02-22T00:05:27.778Z,97.17
2023-02-22T00:06:27.771Z,97.01
2023-02-22T00:07:27.760Z,97.11
2023-02-22T00:08:27.749Z,97.58
2023-02-22T00:09:27.730Z,97.38
2023-02-22T00:10:27.717Z,97.79
2023-02-22T00:11:27.703Z,98.00
2023-02-22T00:12:27.695Z,98.10
2023-02-22T00:13:27.703Z,98.37
2023-02-22T00:14:27.668Z,98.48
2023-02-22T00:15:27.653Z,98.58
2023-02-22T00:16:27.807Z,98.58
2023-02-22T00:17:27.627Z,98.31
2023-02-22T00:18:27.615Z,98.73
2023-02-22T00:19:27.622Z,98.83
2023-02-22T00:20:27.587Z,98.83
2023-02-22T00:21:27.580Z,99.04
2023-02-22T00:22:27.566Z,98.83
2023-02-22T00:23:27.551Z,98.62
2023-02-22T00:24:27.537Z,98.52
2023-02-22T00:25:27.532Z,98.21
2023-02-22T00:26:27.527Z,98.52
2023-02-22T00:27:27.498Z,98.31
2023-02-22T00:28:27.499Z,98.00
2023-02-22T00:29:27.495Z,97.69
2023-02-22T00:30:27.498Z,97.48
2023-02-22T00:31:27.461Z,97.90
2023-02-22T00:32:27.478Z,97.90
2023-02-22T00:33:27.418Z,97.69
2023-02-22T00:34:27.411Z,97.58
2023-02-22T00:35:27.392Z,97.74
2023-02-22T00:36:27.380Z,97.74
2023-02-22T00:37:27.367Z,97.63
2023-02-22T00:38:27.357Z,97.47
2023-02-22T00:39:27.341Z,97.74
2023-02-22T00:40:27.329Z,97.94
2023-02-22T00:41:27.335Z,98.15
2023-02-22T00:42:27.303Z,98.36
2023-02-22T00:43:27.290Z,98.46
2023-02-22T00:44:27.279Z,98.46
2023-02-22T00:45:27.381Z,98.30
2023-02-22T00:46:27.249Z,98.51
2023-02-22T00:47:27.244Z,98.82
2023-02-22T00:48:27.226Z,99.02
2023-02-22T00:49:27.240Z,99.29
2023-02-22T00:50:27.203Z,99.50
2023-02-22T00:51:27.187Z,99.60
2023-02-22T00:52:27.175Z,99.92
2023-02-22T00:53:27.168Z,99.99
2023-02-22T00:54:27.148Z,99.92
2023-02-22T00:55:27.144Z,99.81
2023-02-22T00:56:27.124Z,99.60
2023-02-22T00:57:27.110Z,99.44
2023-02-22T00:58:27.099Z,99.44
2023-02-22T00:59:27.083Z,99.54
2023-02-22T01:00:27.074Z,99.54
2023-02-22T01:01:27.099Z,99.44
2023-02-22T01:02:27.078Z,99.23
2023-02-22T01:03:27.030Z,99.44
2023-02-22T01:04:27.019Z,99.65
2023-02-22T01:05:27.027Z,99.71
2023-02-22T01:06:26.995Z,99.71
2023-02-22T01:07:26.981Z,99.65
2023-02-22T01:08:26.970Z,99.13
2023-02-22T01:09:26.953Z,98.92
2023-02-22T01:10:26.943Z,98.82
2023-02-22T01:11:26.926Z,98.96
2023-02-22T01:12:26.932Z,98.86
2023-02-22T01:13:26.900Z,98.86
2023-02-22T01:14:26.890Z,98.86
2023-02-22T01:15:26.876Z,99.17
2023-02-22T01:16:26.887Z,99.12
2023-02-22T01:17:26.889Z,99.17
2023-02-22T01:18:26.838Z,99.12
2023-02-22T01:19:26.823Z,98.49
2023-02-22T01:20:26.812Z,98.49
2023-02-22T01:21:26.797Z,98.39
2023-02-22T01:22:26.789Z,98.60
2023-02-22T01:23:26.772Z,98.29
2023-02-22T01:24:26.759Z,98.18
2023-02-22T01:25:26.755Z,98.08
2023-02-22T01:26:26.736Z,98.18
2023-02-22T01:27:26.720Z,98.39
2023-02-22T01:28:26.710Z,97.97
2023-02-22T01:29:26.696Z,97.60
2023-02-22T01:30:26.788Z,97.60
2023-02-22T01:31:26.725Z,97.77
2023-02-22T01:32:26.661Z,97.66
2023-02-22T01:33:26.669Z,97.03
2023-02-22T01:34:26.647Z,97.56
2023-02-22T01:35:26.616Z,97.45
2023-02-22T01:36:26.606Z,97.03
2023-02-22T01:37:26.590Z,97.24
2023-02-22T01:38:26.579Z,97.24
2023-02-22T01:39:26.564Z,97.41
2023-02-22T01:40:26.556Z,97.61
2023-02-22T01:41:26.538Z,97.93
2023-02-22T01:42:26.525Z,97.51
2023-02-22T01:43:26.511Z,97.61
2023-02-22T01:44:26.500Z,97.61
2023-02-22T01:45:26.485Z,97.51
2023-02-22T01:46:26.510Z,97.41
2023-02-22T01:47:26.458Z,97.41
2023-02-22T01:48:26.448Z,97.61
2023-02-22T01:49:26.458Z,97.61
2023-02-22T01:50:26.422Z,97.57
2023-02-22T01:51:26.413Z,97.10
2023-02-22T01:52:26.399Z,97.20
2023-02-22T01:53:26.382Z,96.89
2023-02-22T01:54:26.374Z,96.78
2023-02-22T01:55:26.360Z,96.99
2023-02-22T01:56:26.351Z,96.68
2023-02-22T01:57:26.326Z,96.78
2023-02-22T01:58:26.317Z,96.16
2023-02-22T01:59:26.316Z,96.10
2023-02-22T02:00:26.292Z,95.48
2023-02-22T02:01:26.278Z,95.31
2023-02-22T02:02:26.296Z,95.21
2023-02-22T02:03:26.260Z,95.21
2023-02-22T02:04:26.247Z,95.21
2023-02-22T02:05:26.249Z,95.00
2023-02-22T02:06:26.214Z,95.00
2023-02-22T02:07:26.204Z,95.52
2023-02-22T02:08:26.189Z,95.48
2023-02-22T02:09:26.174Z,95.31
2023-02-22T02:10:26.163Z,95.42
2023-02-22T02:11:26.148Z,95.62
2023-02-22T02:12:26.137Z,95.79
2023-02-22T02:13:26.133Z,95.89
2023-02-22T02:14:26.117Z,96.10
2023-02-22T02:15:26.101Z,96.41
2023-02-22T02:16:26.109Z,96.52
2023-02-22T02:17:26.073Z,96.93
2023-02-22T02:18:26.063Z,96.93
2023-02-22T02:19:26.049Z,97.45
2023-02-22T02:20:26.037Z,98.08
2023-02-22T02:21:26.049Z,99.12
2023-02-22T02:22:26.017Z,99.63
2023-02-22T02:23:25.996Z,99.95
2023-02-22T02:24:25.986Z,99.99
2023-02-22T02:25:25.970Z,99.99
2023-02-22T02:26:25.961Z,99.99
2023-02-22T02:27:25.946Z,99.99
2023-02-22T02:28:25.935Z,99.99
2023-02-22T02:29:25.919Z,99.99
2023-02-22T02:30:25.967Z,99.99
2023-02-22T02:31:26.038Z,99.99
2023-02-22T02:32:25.962Z,99.99
2023-02-22T02:33:25.873Z,99.99
2023-02-22T02:34:25.858Z,99.99
2023-02-22T02:35:25.842Z,99.99
2023-02-22T02:36:25.838Z,99.99
2023-02-22T02:37:25.863Z,99.99
2023-02-22T02:38:25.833Z,99.99
2023-02-22T02:39:25.815Z,99.99
2023-02-22T02:40:25.831Z,99.99
2023-02-22T02:41:25.768Z,99.99
2023-02-22T02:42:25.755Z,99.99
2023-02-22T02:43:25.738Z,99.99
2023-02-22T02:44:25.738Z,99.99
2023-02-22T02:45:25.714Z,99.99
2023-02-22T02:46:25.708Z,99.99
2023-02-22T02:47:25.732Z,99.99
2023-02-22T02:48:25.682Z,99.99
2023-02-22T02:49:25.661Z,99.99
2023-02-22T02:50:25.652Z,99.99
2023-02-22T02:51:25.640Z,99.99
2023-02-22T02:52:25.628Z,99.99
2023-02-22T02:53:25.635Z,99.99
2023-02-22T02:54:25.602Z,99.99
2023-02-22T02:56:25.575Z,99.99
2023-02-22T02:57:25.564Z,99.99
2023-02-22T02:58:25.551Z,99.99
2023-02-22T02:59:25.544Z,99.99
2023-02-22T03:00:25.527Z,99.99
2023-02-22T03:01:25.531Z,99.99
2023-02-22T03:02:25.504Z,99.99
2023-02-22T03:03:25.493Z,99.99
2023-02-22T03:04:25.476Z,99.99
2023-02-22T03:05:25.464Z,99.99
2023-02-22T03:06:25.461Z,99.99
2023-02-22T03:07:25.503Z,99.99
2023-02-22T03:08:25.428Z,99.99
2023-02-22T03:09:25.439Z,99.99
2023-02-22T03:10:25.409Z,99.99
2023-02-22T03:11:25.391Z,99.99
2023-02-22T03:12:25.374Z,99.99
2023-02-22T03:13:25.372Z,99.99
2023-02-22T03:14:25.357Z,99.99
2023-02-22T03:15:25.338Z,99.99
2023-02-22T03:16:25.369Z,99.99
2023-02-22T03:17:25.314Z,99.99
2023-02-22T03:18:25.313Z,99.99
2023-02-22T03:19:25.299Z,99.99
2023-02-22T03:20:25.278Z,99.99
2023-02-22T03:21:25.265Z,99.99
2023-02-22T03:22:25.254Z,99.99
2023-02-22T03:23:25.345Z,99.99
2023-02-22T03:24:25.230Z,99.99
2023-02-22T03:25:25.241Z,99.99
2023-02-22T03:26:25.214Z,99.99
2023-02-22T03:27:25.191Z,99.99
2023-02-22T03:28:25.182Z,99.99
2023-02-22T03:29:25.165Z,99.99
2023-02-22T03:30:25.199Z,99.99
2023-02-22T03:31:25.146Z,99.99
2023-02-22T03:32:25.222Z,99.99
2023-02-22T03:33:25.118Z,99.99
2023-02-22T03:34:25.108Z,99.99
2023-02-22T03:35:25.094Z,99.99
2023-02-22T03:36:25.118Z,99.99
2023-02-22T03:37:25.071Z,99.99
2023-02-22T03:38:25.058Z,99.99
2023-02-22T03:39:25.047Z,99.99
2023-02-22T03:40:25.037Z,99.99
2023-02-22T03:41:25.060Z,99.99
2023-02-22T03:42:25.008Z,99.99
2023-02-22T03:43:25.033Z,99.99
2023-02-22T03:44:24.991Z,99.99
2023-02-22T03:45:24.972Z,99.99
2023-02-22T03:46:25.011Z,99.99
2023-02-22T03:47:24.945Z,99.99
2023-02-22T03:48:24.932Z,99.99
2023-02-22T03:49:24.918Z,99.99
2023-02-22T03:50:24.908Z,99.99
2023-02-22T03:51:24.914Z,99.99
2023-02-22T03:52:24.882Z,99.99
2023-02-22T03:53:24.864Z,99.99
2023-02-22T03:54:24.860Z,99.99
2023-02-22T03:55:24.837Z,99.99
2023-02-22T03:56:24.826Z,99.99
2023-02-22T03:57:24.835Z,99.99
2023-02-22T03:58:24.799Z,99.99
2023-02-22T03:59:24.781Z,99.99
2023-02-22T04:00:24.771Z,99.99
2023-02-22T04:01:24.757Z,99.99
2023-02-22T04:02:24.741Z,99.99
2023-02-22T04:03:24.733Z,99.99
2023-02-22T04:04:24.745Z,99.99
2023-02-22T04:05:24.712Z,99.99
2023-02-22T04:06:24.687Z,99.99
2023-02-22T04:07:24.676Z,99.99
2023-02-22T04:08:24.658Z,99.99
2023-02-22T04:09:24.656Z,99.99
2023-02-22T04:10:24.653Z,99.99
2023-02-22T04:11:24.627Z,99.99
2023-02-22T04:12:24.608Z,99.99
2023-02-22T04:13:24.619Z,99.99
2023-02-22T04:14:24.582Z,99.99
2023-02-22T04:15:24.570Z,99.99
2023-02-22T04:16:24.554Z,99.99
2023-02-22T04:17:24.542Z,99.99
2023-02-22T04:18:24.529Z,99.99
2023-02-22T04:19:24.519Z,99.99
2023-02-22T04:20:24.500Z,99.99
2023-02-22T04:21:24.496Z,99.99
2023-02-22T04:22:24.478Z,99.99
2023-02-22T04:23:24.465Z,99.99
2023-02-22T04:24:24.447Z,99.99
2023-02-22T04:25:24.478Z,99.99
2023-02-22T04:26:24.427Z,99.99
2023-02-22T04:27:24.409Z,99.99
2023-02-22T04:28:24.396Z,99.99
2023-02-22T04:29:24.414Z,99.99
2023-02-22T04:30:24.417Z,99.99
2023-02-22T04:31:24.390Z,99.99
2023-02-22T04:32:24.391Z,99.99
2023-02-22T04:33:24.352Z,99.99
2023-02-22T04:34:24.323Z,99.99
2023-02-22T04:35:24.305Z,99.99
2023-02-22T04:36:24.291Z,99.99
2023-02-22T04:37:24.278Z,99.99
2023-02-22T04:38:24.263Z,99.99
2023-02-22T04:39:24.286Z,99.99
2023-02-22T04:40:24.237Z,99.99
2023-02-22T04:41:25.613Z,99.99
2023-02-22T04:42:24.210Z,99.99
2023-02-22T04:43:24.204Z,99.99
2023-02-22T04:44:24.184Z,99.99
2023-02-22T04:45:24.195Z,99.99
2023-02-22T04:46:24.221Z,99.99
2023-02-22T04:47:24.148Z,99.99
2023-02-22T04:48:24.133Z,99.99
2023-02-22T04:49:24.123Z,99.99
2023-02-22T04:50:24.107Z,99.99
2023-02-22T04:51:24.096Z,99.99
2023-02-22T04:52:24.083Z,99.99
2023-02-22T04:53:24.070Z,99.99
2023-02-22T04:54:24.056Z,99.99
2023-02-22T04:55:24.052Z,99.99
2023-02-22T04:56:24.035Z,99.99
2023-02-22T04:57:24.025Z,99.99
2023-02-22T04:58:24.019Z,99.99
2023-02-22T04:59:23.992Z,99.99
2023-02-22T05:00:23.980Z,99.99
2023-02-22T05:01:23.993Z,99.99
2023-02-22T05:02:24.042Z,99.99
2023-02-22T05:03:23.945Z,99.99
2023-02-22T05:04:23.950Z,99.99
2023-02-22T05:05:23.921Z,99.99
2023-02-22T05:06:23.899Z,99.99
2023-02-22T05:07:23.889Z,99.99
2023-02-22T05:08:23.873Z,99.99
2023-02-22T05:09:23.888Z,99.99
2023-02-22T05:10:23.847Z,99.99
2023-02-22T05:11:23.837Z,99.99
2023-02-22T05:12:23.824Z,99.99
2023-02-22T05:13:23.806Z,99.99
2023-02-22T05:14:23.792Z,99.99
2023-02-22T05:15:23.781Z,99.99
2023-02-22T05:16:23.860Z,99.99
2023-02-22T05:17:23.784Z,99.99
2023-02-22T05:18:23.737Z,99.99
2023-02-22T05:19:23.725Z,99.99
2023-02-22T05:20:23.709Z,99.99
2023-02-22T05:21:23.698Z,99.99
2023-02-22T05:22:23.683Z,99.99
2023-02-22T05:23:23.691Z,99.99
2023-02-22T05:24:23.670Z,99.99
2023-02-22T05:25:23.643Z,99.99
2023-02-22T05:26:23.672Z,99.99
2023-02-22T05:27:23.620Z,99.99
2023-02-22T05:28:23.605Z,99.99
2023-02-22T05:29:23.589Z,99.99
2023-02-22T05:30:23.685Z,99.99
2023-02-22T05:31:23.699Z,99.99
2023-02-22T05:32:23.577Z,99.99
2023-02-22T05:33:23.560Z,99.99
2023-02-22T05:34:23.519Z,99.99
2023-02-22T05:35:23.531Z,99.99
2023-02-22T05:36:23.495Z,99.99
2023-02-22T05:37:23.482Z,99.99
2023-02-22T05:38:23.480Z,99.99
2023-02-22T05:39:23.462Z,99.99
2023-02-22T05:40:23.441Z,99.99
2023-02-22T05:41:23.429Z,99.99
2023-02-22T05:42:23.424Z,99.99
2023-02-22T05:43:23.403Z,99.99
2023-02-22T05:44:23.388Z,99.99
2023-02-22T05:45:23.377Z,99.99
2023-02-22T05:46:23.424Z,99.99
2023-02-22T05:47:23.348Z,99.99
2023-02-22T05:48:23.333Z,99.99
2023-02-22T05:49:23.361Z,99.99
2023-02-22T05:50:23.306Z,99.99
2023-02-22T05:51:23.295Z,99.99
2023-02-22T05:52:23.278Z,99.99
2023-02-22T05:53:23.266Z,99.99
2023-02-22T05:54:23.252Z,99.99
2023-02-22T05:55:23.254Z,99.99
2023-02-22T05:56:23.230Z,99.99
2023-02-22T05:57:23.210Z,99.99
2023-02-22T05:58:23.199Z,99.99
2023-02-22T05:59:23.182Z,99.99
2023-02-22T06:00:23.197Z,99.99
2023-02-22T06:01:23.157Z,99.99
2023-02-22T06:02:23.143Z,99.99
2023-02-22T06:03:23.131Z,99.99
2023-02-22T06:04:23.115Z,99.99
2023-02-22T06:05:23.179Z,99.99
2023-02-22T06:06:23.092Z,99.99
2023-02-22T06:07:23.075Z,99.99
2023-02-22T06:08:23.059Z,99.99
2023-02-22T06:09:23.051Z,99.99
2023-02-22T06:10:23.039Z,99.99
2023-02-22T06:11:23.025Z,99.99
2023-02-22T06:12:23.003Z,99.99
2023-02-22T06:13:22.998Z,99.99
2023-02-22T06:14:22.982Z,99.99
2023-02-22T06:15:22.985Z,99.99
2023-02-22T06:16:23.028Z,99.99
2023-02-22T06:17:22.944Z,99.99
2023-02-22T06:18:22.935Z,99.99
2023-02-22T06:19:22.912Z,99.99
2023-02-22T06:20:22.900Z,99.99
2023-02-22T06:21:22.918Z,99.99
2023-02-22T06:22:22.880Z,99.99
2023-02-22T06:23:22.862Z,99.99
2023-02-22T06:24:22.844Z,99.99
2023-02-22T06:25:22.834Z,99.99
2023-02-22T06:26:22.846Z,99.99
2023-02-22T06:27:22.829Z,99.99
2023-02-22T06:28:22.790Z,99.99
2023-02-22T06:29:22.777Z,99.99
2023-02-22T06:30:22.835Z,99.99
2023-02-22T06:31:22.803Z,99.99
2023-02-22T06:32:22.789Z,99.99
2023-02-22T06:33:22.724Z,99.99
2023-02-22T06:34:22.713Z,99.99
2023-02-22T06:35:22.707Z,99.99
2023-02-22T06:36:22.683Z,99.99
2023-02-22T06:37:22.697Z,99.99
2023-02-22T06:38:22.661Z,99.99
2023-02-22T06:39:22.646Z,99.99
2023-02-22T06:40:22.628Z,99.99
2023-02-22T06:41:22.616Z,99.99
2023-02-22T06:42:22.691Z,99.99
2023-02-22T06:43:22.588Z,99.99
2023-02-22T06:44:22.576Z,99.99
2023-02-22T06:45:22.628Z,99.99
2023-02-22T06:46:22.546Z,99.99
2023-02-22T06:47:22.537Z,99.99
2023-02-22T06:48:22.519Z,99.99
2023-02-22T06:49:22.508Z,99.99
2023-02-22T06:50:22.512Z,99.99
2023-02-22T06:51:22.483Z,99.99
2023-02-22T06:52:22.464Z,99.99
2023-02-22T06:53:22.481Z,99.99
2023-02-22T06:54:22.441Z,99.99
2023-02-22T06:55:22.425Z,99.99
2023-02-22T06:56:22.411Z,99.99
2023-02-22T06:57:22.398Z,99.99
2023-02-22T06:58:22.386Z,99.99
2023-02-22T06:59:22.373Z,99.99
2023-02-22T07:00:22.364Z,99.99
2023-02-22T07:01:22.416Z,99.99
2023-02-22T07:02:22.333Z,99.99
2023-02-22T07:03:22.387Z,99.99
2023-02-22T07:04:22.306Z,99.99
2023-02-22T07:05:22.301Z,99.99
2023-02-22T07:06:22.280Z,99.99
2023-02-22T07:07:22.267Z,99.99
2023-02-22T07:08:22.255Z,99.99
2023-02-22T07:09:22.267Z,99.99
2023-02-22T07:10:22.233Z,99.99
2023-02-22T07:11:22.216Z,99.99
2023-02-22T07:12:22.204Z,99.99
2023-02-22T07:13:22.188Z,99.99
2023-02-22T07:14:22.175Z,99.99
2023-02-22T07:15:22.161Z,99.99
2023-02-22T07:16:22.211Z,99.99
2023-02-22T07:17:22.136Z,99.99
2023-02-22T07:18:22.120Z,99.99
2023-02-22T07:19:22.107Z,99.99
2023-02-22T07:20:22.110Z,99.99
2023-02-22T07:21:22.089Z,99.99
2023-02-22T07:22:22.068Z,99.99
2023-02-22T07:23:22.059Z,99.99
2023-02-22T07:24:22.044Z,99.99
2023-02-22T07:25:22.056Z,99.99
2023-02-22T07:26:22.016Z,99.99
2023-02-22T07:27:22.003Z,99.99
2023-02-22T07:28:21.988Z,99.99
2023-02-22T07:29:21.977Z,99.99
2023-02-22T07:30:21.976Z,99.99
2023-02-22T07:31:21.952Z,99.99
2023-02-22T07:32:22.021Z,99.99
2023-02-22T07:33:21.924Z,99.99
2023-02-22T07:34:21.911Z,99.99
2023-02-22T07:35:21.914Z,99.99
2023-02-22T07:36:21.889Z,99.99
2023-02-22T07:37:21.873Z,99.99
2023-02-22T07:38:21.860Z,99.99
2023-02-22T07:39:21.848Z,99.99
2023-02-22T07:40:21.842Z,99.99
2023-02-22T07:41:21.869Z,99.99
2023-02-22T07:42:21.806Z,99.99
2023-02-22T07:43:21.815Z,99.99
2023-02-22T07:44:21.781Z,99.99
2023-02-22T07:45:21.814Z,99.99
2023-02-22T07:46:21.756Z,99.99
2023-02-22T07:47:21.745Z,99.99
2023-02-22T07:48:21.730Z,99.99
2023-02-22T07:49:21.726Z,99.99
2023-02-22T07:50:21.720Z,99.99
2023-02-22T07:51:21.692Z,99.99
2023-02-22T07:52:21.680Z,99.99
2023-02-22T07:53:21.666Z,99.99
2023-02-22T07:54:21.656Z,99.99
2023-02-22T07:55:21.642Z,99.99
2023-02-22T07:56:21.630Z,99.99
2023-02-22T07:57:21.640Z,99.99
2023-02-22T07:58:21.617Z,99.99
2023-02-22T07:59:21.625Z,99.99
2023-02-22T08:00:21.583Z,99.99
2023-02-22T08:01:21.605Z,99.99
2023-02-22T08:02:21.594Z,99.99
2023-02-22T08:03:21.642Z,99.99
2023-02-22T08:04:21.531Z,99.99
2023-02-22T08:05:21.551Z,99.99
2023-02-22T08:06:21.537Z,99.99
2023-02-22T08:07:21.488Z,99.99
2023-02-22T08:08:21.479Z,99.99
2023-02-22T08:09:21.468Z,99.99
2023-02-22T08:10:21.448Z,99.99
2023-02-22T08:11:21.435Z,99.99
2023-02-22T08:12:21.423Z,99.99
2023-02-22T08:13:21.431Z,99.99
2023-02-22T08:14:21.395Z,99.99
2023-02-22T08:15:21.391Z,99.99
2023-02-22T08:16:21.373Z,99.99
2023-02-22T08:17:21.481Z,99.99
2023-02-22T08:18:21.364Z,99.99
2023-02-22T08:19:21.329Z,99.56
2023-02-22T08:20:21.318Z,99.60
2023-02-22T08:21:21.303Z,99.29
2023-02-22T08:22:22.100Z,99.50
2023-02-22T08:23:21.276Z,99.19
2023-02-22T08:24:21.268Z,99.60
2023-02-22T08:25:21.265Z,99.56
2023-02-22T08:26:21.240Z,99.66
2023-02-22T08:27:21.228Z,99.35
2023-02-22T08:28:21.214Z,99.45
2023-02-22T08:29:21.221Z,99.35
2023-02-22T08:30:21.263Z,98.63
2023-02-22T08:31:21.286Z,98.67
2023-02-22T08:32:21.409Z,98.57
2023-02-22T08:33:21.355Z,98.73
2023-02-22T08:34:21.142Z,98.94
2023-02-22T08:35:21.124Z,98.63
2023-02-22T08:36:21.109Z,98.52
2023-02-22T08:37:21.093Z,98.73
2023-02-22T08:38:21.084Z,98.63
2023-02-22T08:39:21.071Z,99.35
2023-02-22T08:40:21.059Z,99.24
2023-02-22T08:41:21.062Z,99.20
2023-02-22T08:42:21.045Z,99.10
2023-02-22T08:43:21.018Z,99.20
2023-02-22T08:44:21.012Z,99.26
2023-02-22T08:45:21.036Z,98.54
2023-02-22T08:46:21.047Z,99.06
2023-02-22T08:47:20.960Z,98.85
2023-02-22T08:48:20.960Z,98.33
2023-02-22T08:49:20.933Z,98.22
2023-02-22T08:50:20.924Z,98.22
2023-02-22T08:51:20.909Z,98.33
2023-02-22T08:52:20.897Z,98.12
2023-02-22T08:53:20.885Z,97.86
2023-02-22T08:54:20.870Z,97.60
2023-02-22T08:55:20.857Z,98.01
2023-02-22T08:56:20.842Z,98.48
2023-02-22T08:57:21.851Z,98.48
2023-02-22T08:58:20.815Z,98.68
2023-02-22T08:59:20.801Z,98.64
2023-02-22T09:00:20.788Z,98.38
2023-02-22T09:01:31.449Z,98.54
2023-02-22T09:02:22.857Z,98.58
2023-02-22T09:03:20.805Z,98.68
2023-02-22T09:04:20.738Z,98.68
2023-02-22T09:05:20.730Z,98.79
2023-02-22T09:06:20.710Z,98.48
2023-02-22T09:07:20.694Z,98.68
2023-02-22T09:08:20.683Z,99.06
2023-02-22T09:09:20.668Z,98.95
2023-02-22T09:10:20.672Z,98.85
2023-02-22T09:11:20.651Z,98.95
2023-02-22T09:12:20.634Z,98.85
2023-02-22T09:13:20.652Z,98.22
2023-02-22T09:14:20.604Z,98.64
2023-02-22T09:15:20.590Z,99.06
2023-02-22T09:16:20.645Z,99.52
2023-02-22T09:17:20.587Z,99.21
2023-02-22T09:18:20.594Z,99.27
2023-02-22T09:19:20.588Z,98.76
2023-02-22T09:20:20.601Z,98.55
2023-02-22T09:21:20.520Z,98.34
2023-02-22T09:22:20.503Z,98.08
2023-02-22T09:23:21.621Z,98.34
2023-02-22T09:24:20.512Z,97.72
2023-02-22T09:25:20.507Z,97.93
2023-02-22T09:26:20.450Z,97.52
2023-02-22T09:27:20.445Z,97.52
2023-02-22T09:28:20.430Z,97.41
2023-02-22T09:29:20.410Z,97.47
2023-02-22T09:30:20.483Z,97.16
2023-02-22T09:31:21.159Z,96.85
2023-02-22T09:32:20.530Z,96.34
2023-02-22T09:33:20.474Z,96.13
2023-02-22T09:34:20.351Z,96.28
2023-02-22T09:35:20.345Z,96.59
2023-02-22T09:36:20.326Z,96.90
2023-02-22T09:37:20.311Z,97.21
2023-02-22T09:38:20.300Z,97.21
2023-02-22T09:39:20.288Z,97.72
2023-02-22T09:40:20.274Z,97.41
2023-02-22T09:41:20.260Z,97.41
2023-02-22T09:42:20.248Z,97.41
2023-02-22T09:43:20.236Z,96.69
2023-02-22T09:44:20.229Z,96.12
2023-02-22T09:45:20.212Z,96.43
2023-02-22T09:46:20.641Z,96.69
2023-02-22T09:47:20.232Z,97.21
2023-02-22T09:48:22.339Z,97.10
2023-02-22T09:49:20.193Z,97.27
2023-02-22T09:50:20.150Z,97.68
2023-02-22T09:51:20.132Z,97.74
2023-02-22T09:52:20.120Z,97.32
2023-02-22T09:53:20.108Z,97.02
2023-02-22T09:54:20.100Z,97.43
2023-02-22T09:55:20.083Z,96.71
2023-02-22T09:56:20.455Z,96.71
2023-02-22T09:57:20.084Z,96.50
2023-02-22T09:58:20.048Z,96.65
2023-02-22T09:59:20.049Z,97.02
2023-02-22T10:00:20.058Z,97.32
2023-02-22T10:01:20.013Z,97.38
2023-02-22T10:02:20.009Z,97.18
2023-02-22T10:03:21.457Z,97.07
2023-02-22T10:04:19.969Z,96.77
2023-02-22T10:05:20.073Z,96.77
2023-02-22T10:06:19.941Z,97.13
2023-02-22T10:07:19.929Z,96.82
2023-02-22T10:08:19.921Z,96.10
2023-02-22T10:09:19.907Z,95.89
2023-02-22T10:10:20.016Z,96.10
2023-02-22T10:11:19.876Z,96.31
2023-02-22T10:12:19.867Z,95.38
2023-02-22T10:13:19.847Z,96.10
2023-02-22T10:14:19.836Z,96.20
2023-02-22T10:15:19.832Z,96.47
2023-02-22T10:16:20.246Z,95.64
2023-02-22T10:17:19.827Z,95.55
2023-02-22T10:18:19.787Z,95.23
2023-02-22T10:19:19.769Z,95.13
2023-02-22T10:20:19.867Z,94.88
2023-02-22T10:21:19.847Z,94.98
2023-02-22T10:22:19.742Z,94.88
2023-02-22T10:23:19.716Z,94.98
2023-02-22T10:24:19.705Z,94.88
2023-02-22T10:25:19.689Z,94.06
2023-02-22T10:26:19.971Z,93.13
2023-02-22T10:27:19.662Z,93.75
2023-02-22T10:28:19.651Z,94.47
2023-02-22T10:29:19.636Z,94.84
2023-02-22T10:30:25.095Z,94.63
2023-02-22T10:31:19.767Z,94.84
2023-02-22T10:32:19.642Z,94.53
2023-02-22T10:33:19.585Z,94.63
2023-02-22T10:34:19.572Z,94.43
2023-02-22T10:35:19.565Z,94.94
2023-02-22T10:36:19.784Z,94.69
2023-02-22T10:37:19.593Z,94.69
2023-02-22T10:38:19.518Z,93.67
2023-02-22T10:39:19.574Z,93.15
2023-02-22T10:40:19.505Z,93.01
2023-02-22T10:41:19.476Z,92.49
2023-02-22T10:42:19.463Z,91.88
2023-02-22T10:43:19.450Z,92.45
2023-02-22T10:44:19.440Z,92.30
2023-02-22T10:45:19.422Z,92.26
2023-02-22T10:46:19.895Z,91.34
2023-02-22T10:47:21.794Z,90.88
2023-02-22T10:48:19.388Z,90.88
2023-02-22T10:49:19.367Z,90.43
2023-02-22T10:50:19.358Z,88.96
2023-02-22T10:51:19.356Z,88.28
2023-02-22T10:52:19.360Z,88.39
2023-02-22T10:53:19.347Z,87.83
2023-02-22T10:54:19.314Z,87.73
2023-02-22T10:55:19.296Z,87.63
2023-02-22T10:57:19.268Z,85.52
2023-02-22T10:58:19.255Z,86.74
2023-02-22T10:59:19.240Z,86.07
2023-02-22T11:00:19.260Z,87.13
2023-02-22T11:01:19.491Z,87.30
2023-02-22T11:02:19.202Z,86.17
2023-02-22T11:03:19.188Z,86.97
2023-02-22T11:04:19.173Z,87.69
2023-02-22T11:05:19.250Z,88.00
2023-02-22T11:06:19.152Z,89.08
2023-02-22T11:07:19.138Z,89.04
2023-02-22T11:08:19.121Z,88.01
2023-02-22T11:09:19.175Z,87.20
2023-02-22T11:10:19.094Z,87.98
2023-02-22T11:11:19.082Z,86.27
2023-02-22T11:12:19.068Z,87.46
2023-02-22T11:13:19.059Z,87.98
2023-02-22T11:14:19.043Z,87.12
2023-02-22T11:15:19.054Z,86.85
2023-02-22T11:16:19.050Z,87.06
2023-02-22T11:17:19.005Z,86.74
2023-02-22T11:18:18.989Z,87.15
2023-02-22T11:19:18.974Z,87.36
2023-02-22T11:20:18.962Z,87.26
2023-02-22T11:21:19.238Z,87.77
2023-02-22T11:22:18.936Z,86.34
2023-02-22T11:23:18.922Z,86.95
2023-02-22T11:24:18.910Z,85.21
2023-02-22T11:25:18.928Z,85.31
2023-02-22T11:26:18.884Z,85.72
2023-02-22T11:27:18.870Z,85.62
2023-02-22T11:28:18.856Z,86.19
2023-02-22T11:29:18.865Z,85.35
2023-02-22T11:30:18.861Z,86.54
2023-02-22T11:31:19.120Z,86.91
2023-02-22T11:32:18.846Z,86.36
2023-02-22T11:33:18.790Z,85.33
2023-02-22T11:34:18.778Z,84.79
2023-02-22T11:35:19.919Z,83.59
2023-02-22T11:36:18.750Z,83.49
2023-02-22T11:37:18.738Z,84.31
2023-02-22T11:38:18.726Z,85.50
2023-02-22T11:39:18.713Z,84.64
2023-02-22T11:40:18.695Z,83.68
2023-02-22T11:41:19.143Z,82.36
2023-02-22T11:42:18.672Z,81.81
2023-02-22T11:43:18.657Z,81.40
2023-02-22T11:44:18.642Z,80.74
2023-02-22T11:45:18.629Z,80.03
2023-02-22T11:46:18.756Z,80.34
2023-02-22T11:47:18.604Z,79.99
2023-02-22T11:48:18.591Z,79.58
2023-02-22T11:49:18.586Z,79.79
2023-02-22T11:50:18.592Z,79.65
2023-02-22T11:51:18.924Z,79.00
2023-02-22T11:52:18.553Z,77.10
2023-02-22T11:53:18.523Z,78.12
2023-02-22T11:54:18.510Z,78.33
2023-02-22T11:55:19.932Z,78.02
2023-02-22T11:56:20.532Z,77.88
2023-02-22T11:57:18.498Z,77.58
2023-02-22T11:58:18.465Z,77.64
2023-02-22T11:59:18.444Z,76.42
2023-02-22T12:00:18.431Z,76.42
2023-02-22T12:01:18.417Z,76.79
2023-02-22T12:02:18.404Z,75.64
2023-02-22T12:03:18.413Z,74.71
2023-02-22T12:04:18.400Z,74.31
2023-02-22T12:05:18.439Z,74.99
2023-02-22T12:06:18.691Z,74.85
2023-02-22T12:07:18.337Z,73.43
2023-02-22T12:08:20.053Z,72.82
2023-02-22T12:09:18.311Z,73.22
2023-02-22T12:10:18.315Z,72.58
2023-02-22T12:11:18.426Z,71.42
2023-02-22T12:12:18.270Z,77.28
2023-02-22T12:13:18.400Z,78.84
2023-02-22T12:14:18.275Z,80.69
2023-02-22T12:15:18.234Z,82.57
2023-02-22T12:16:18.526Z,83.98
2023-02-22T12:17:18.203Z,85.66
2023-02-22T12:18:18.206Z,86.48
2023-02-22T12:19:18.175Z,86.60
2023-02-22T12:20:18.163Z,84.27
2023-02-22T12:21:18.148Z,82.62
2023-02-22T12:22:18.141Z,79.28
2023-02-22T12:23:18.122Z,77.88
2023-02-22T12:24:18.111Z,77.41
2023-02-22T12:25:18.096Z,77.92
2023-02-22T12:26:18.365Z,78.33
2023-02-22T12:27:18.116Z,78.43
2023-02-22T12:28:24.829Z,77.64
2023-02-22T12:29:20.080Z,75.94
2023-02-22T12:30:18.074Z,73.49
2023-02-22T12:31:18.487Z,74.92
2023-02-22T12:32:18.146Z,73.32
2023-02-22T12:33:17.999Z,73.16
2023-02-22T12:34:18.010Z,73.12
2023-02-22T12:35:17.970Z,72.47
2023-02-22T12:36:17.955Z,71.26
2023-02-22T12:37:17.988Z,68.62
2023-02-22T12:38:17.931Z,67.11
2023-02-22T12:39:17.919Z,64.16
2023-02-22T12:40:17.905Z,62.88
2023-02-22T12:41:18.205Z,60.76
2023-02-22T12:42:17.881Z,61.40
2023-02-22T12:43:17.869Z,62.43
2023-02-22T12:44:17.854Z,62.06
2023-02-22T12:45:17.872Z,62.67
2023-02-22T12:46:17.868Z,62.97
2023-02-22T12:47:17.819Z,62.87
2023-02-22T12:48:17.808Z,63.74
2023-02-22T12:49:17.788Z,64.65
2023-02-22T12:50:17.780Z,64.68
2023-02-22T12:51:18.077Z,65.11
2023-02-22T12:52:21.916Z,65.82
2023-02-22T12:53:17.735Z,66.03
2023-02-22T12:54:17.760Z,66.26